createdAt,value
2018-09-24T00:02:24.367Z,89.20
2018-09-24T00:04:53.023Z,89.80
2018-09-24T00:07:21.668Z,89.30
2018-09-24T00:09:50.431Z,89.60
2018-09-24T00:12:18.989Z,89.70
2018-09-24T00:14:53.141Z,90.20
2018-09-24T00:17:21.757Z,90.40
2018-09-24T00:19:50.488Z,90.70
2018-09-24T00:22:19.140Z,90.70
2018-09-24T00:24:47.806Z,90.80
2018-09-24T00:27:16.461Z,91.40
2018-09-24T00:29:45.030Z,91.40
2018-09-24T00:32:13.635Z,92.10
2018-09-24T00:34:42.206Z,91.60
2018-09-24T00:37:10.791Z,92.10
2018-09-24T00:39:39.548Z,91.60
2018-09-24T00:42:08.373Z,91.30
2018-09-24T00:44:37.201Z,90.70
2018-09-24T00:47:05.975Z,90.10
2018-09-24T00:49:35.006Z,89.70
2018-09-24T00:52:04.136Z,89.50
2018-09-24T00:54:32.972Z,89.60
2018-09-24T00:57:01.696Z,89.70
2018-09-24T00:59:30.466Z,89.70
2018-09-24T01:01:59.165Z,89.50
2018-09-24T01:04:27.803Z,89.40
2018-09-24T01:06:56.533Z,89.30
2018-09-24T01:09:25.108Z,89.40
2018-09-24T01:11:53.645Z,90.20
2018-09-24T01:14:22.295Z,89.80
2018-09-24T01:16:50.925Z,90.10
2018-09-24T01:19:19.646Z,90.10
2018-09-24T01:21:48.325Z,90.00
2018-09-24T01:24:17.113Z,89.40
2018-09-24T01:26:45.855Z,89.60
2018-09-24T01:29:14.525Z,88.60
2018-09-24T01:31:43.200Z,88.60
2018-09-24T01:34:11.845Z,89.10
2018-09-24T01:36:40.453Z,88.70
2018-09-24T01:39:09.201Z,88.50
2018-09-24T01:41:37.880Z,87.40
2018-09-24T01:44:06.579Z,87.80
2018-09-24T01:46:35.285Z,88.50
2018-09-24T01:49:04.053Z,89.00
2018-09-24T01:51:38.028Z,88.50
2018-09-24T01:54:07.235Z,88.70
2018-09-24T01:56:36.017Z,89.50
2018-09-24T01:59:04.845Z,89.90
2018-09-24T02:01:33.555Z,90.40
2018-09-24T02:04:02.356Z,90.50
2018-09-24T02:06:31.038Z,90.80
2018-09-24T02:08:59.663Z,90.70
2018-09-24T02:11:28.258Z,90.80
2018-09-24T02:13:56.873Z,91.00
2018-09-24T02:16:25.460Z,91.10
2018-09-24T02:19:00.213Z,91.30
2018-09-24T02:21:29.033Z,91.70
2018-09-24T02:24:05.230Z,91.80
2018-09-24T02:26:33.920Z,92.20
2018-09-24T02:29:02.597Z,92.50
2018-09-24T02:31:38.968Z,92.60
2018-09-24T02:34:09.660Z,92.60
2018-09-24T02:36:38.353Z,92.70
2018-09-24T02:39:08.621Z,92.80
2018-09-24T02:41:37.733Z,93.00
2018-09-24T02:44:06.373Z,93.60
2018-09-24T02:46:42.687Z,93.50
2018-09-24T02:49:11.399Z,93.50
2018-09-24T02:51:40.186Z,93.50
2018-09-24T02:54:08.908Z,93.60
2018-09-24T02:56:47.495Z,94.20
2018-09-24T02:59:16.255Z,94.50
2018-09-24T03:01:44.835Z,94.70
2018-09-24T03:04:13.434Z,94.80
2018-09-24T03:06:41.983Z,95.10
2018-09-24T03:09:18.003Z,95.30
2018-09-24T03:11:47.029Z,95.50
2018-09-24T03:14:23.601Z,96.30
2018-09-24T03:16:53.095Z,96.00
2018-09-24T03:19:21.748Z,95.80
2018-09-24T03:21:50.486Z,95.70
2018-09-24T03:24:19.168Z,95.90
2018-09-24T03:26:47.833Z,95.70
2018-09-24T03:29:22.520Z,95.90
2018-09-24T03:31:51.493Z,96.00
2018-09-24T03:34:20.178Z,95.60
2018-09-24T03:36:50.061Z,96.10
2018-09-24T03:39:18.859Z,96.00
2018-09-24T03:41:47.534Z,95.70
2018-09-24T03:44:16.185Z,95.70
2018-09-24T03:46:44.886Z,95.70
2018-09-24T03:49:13.539Z,95.60
2018-09-24T03:51:42.403Z,95.40
2018-09-24T03:54:11.158Z,95.30
2018-09-24T03:56:39.827Z,95.20
2018-09-24T03:59:08.596Z,95.00
2018-09-24T04:01:37.498Z,94.60
2018-09-24T04:04:12.044Z,94.20
2018-09-24T04:06:46.335Z,94.10
2018-09-24T04:09:20.565Z,94.10
2018-09-24T04:11:54.868Z,93.90
2018-09-24T04:14:29.355Z,93.90
2018-09-24T04:17:03.425Z,93.90
2018-09-24T04:19:37.563Z,93.80
2018-09-24T04:22:11.814Z,93.80
2018-09-24T04:24:52.160Z,93.60
2018-09-24T04:27:26.228Z,94.50
2018-09-24T04:30:00.690Z,93.70
2018-09-24T04:32:34.724Z,93.70
2018-09-24T04:35:08.903Z,94.40
2018-09-24T04:37:44.555Z,93.80
2018-09-24T04:40:18.673Z,93.90
2018-09-24T04:42:52.689Z,93.80
2018-09-24T04:45:27.005Z,93.90
2018-09-24T04:48:01.270Z,94.00
2018-09-24T04:50:35.528Z,94.10
2018-09-24T04:53:15.393Z,94.30
2018-09-24T04:55:49.883Z,94.40
2018-09-24T04:58:24.227Z,94.50
2018-09-24T05:00:58.486Z,94.60
2018-09-24T05:03:32.712Z,94.60
2018-09-24T05:06:06.990Z,94.20
2018-09-24T05:08:43.548Z,94.20
2018-09-24T05:11:18.351Z,94.30
2018-09-24T05:13:52.552Z,94.20
2018-09-24T05:16:27.448Z,94.10
2018-09-24T05:19:02.590Z,94.00
2018-09-24T05:21:36.914Z,93.90
2018-09-24T05:24:11.986Z,93.70
2018-09-24T05:26:47.780Z,93.70
2018-09-24T05:29:27.408Z,93.90
2018-09-24T05:32:01.656Z,93.80
2018-09-24T05:34:35.932Z,93.80
2018-09-24T05:37:10.128Z,94.00
2018-09-24T05:39:48.318Z,93.90
2018-09-24T05:42:22.623Z,93.50
2018-09-24T05:44:56.948Z,93.30
2018-09-24T05:47:34.555Z,93.00
2018-09-24T05:50:19.533Z,92.70
2018-09-24T05:52:53.694Z,92.70
2018-09-24T05:55:27.988Z,92.80
2018-09-24T05:58:02.058Z,92.50
2018-09-24T06:00:39.333Z,92.50
2018-09-24T06:03:13.317Z,92.40
2018-09-24T06:05:47.378Z,92.00
2018-09-24T06:08:26.548Z,91.40
2018-09-24T06:11:00.896Z,91.30
2018-09-24T06:13:35.131Z,90.90
2018-09-24T06:16:09.381Z,90.50
2018-09-24T06:18:48.213Z,90.30
2018-09-24T06:21:24.031Z,90.20
2018-09-24T06:23:58.324Z,90.00
2018-09-24T06:26:32.608Z,89.60
2018-09-24T06:29:06.974Z,89.30
2018-09-24T06:31:41.986Z,88.30
2018-09-24T06:34:16.347Z,88.30
2018-09-24T06:36:50.600Z,87.90
2018-09-24T06:39:27.188Z,87.60
2018-09-24T06:42:03.014Z,87.80
2018-09-24T06:44:37.169Z,87.10
2018-09-24T06:47:11.245Z,87.00
2018-09-24T06:49:46.945Z,86.30
2018-09-24T06:52:25.296Z,85.70
2018-09-24T06:54:59.591Z,84.80
2018-09-24T06:57:33.836Z,84.30
2018-09-24T07:00:08.211Z,83.00
2018-09-24T07:02:43.331Z,81.30
2018-09-24T07:05:17.649Z,80.10
2018-09-24T07:07:51.781Z,77.70
2018-09-24T07:10:28.344Z,76.70
2018-09-24T07:13:03.436Z,76.50
2018-09-24T07:15:37.614Z,75.90
2018-09-24T07:18:11.794Z,76.80
2018-09-24T07:20:47.243Z,76.60
2018-09-24T07:23:22.254Z,75.20
2018-09-24T07:26:02.174Z,74.90
2018-09-24T07:28:36.876Z,74.40
2018-09-24T07:31:11.916Z,72.20
2018-09-24T07:33:46.151Z,73.20
2018-09-24T07:36:20.266Z,74.30
2018-09-24T07:38:54.566Z,71.80
2018-09-24T07:41:28.736Z,72.00
2018-09-24T07:44:05.649Z,73.00
2018-09-24T07:46:39.836Z,72.10
2018-09-24T07:49:14.044Z,71.30
2018-09-24T07:51:49.356Z,71.80
2018-09-24T07:54:24.627Z,70.20
2018-09-24T07:56:58.940Z,70.50
2018-09-24T07:59:33.956Z,69.60
2018-09-24T08:02:08.429Z,68.80
2018-09-24T08:04:42.916Z,68.90
2018-09-24T08:07:17.124Z,66.90
2018-09-24T08:09:52.236Z,66.40
2018-09-24T08:12:26.694Z,66.20
2018-09-24T08:15:01.805Z,64.60
2018-09-24T08:17:36.263Z,64.60
2018-09-24T08:20:10.566Z,61.80
2018-09-24T08:22:44.879Z,62.30
2018-09-24T08:25:19.969Z,61.30
2018-09-24T08:27:54.186Z,59.40
2018-09-24T08:30:29.158Z,60.60
2018-09-24T08:33:03.326Z,62.70
2018-09-24T08:35:37.765Z,61.10
2018-09-24T08:38:12.008Z,59.40
2018-09-24T08:40:46.945Z,60.80
2018-09-24T08:43:21.008Z,63.90
2018-09-24T08:45:55.261Z,61.00
2018-09-24T08:48:29.713Z,59.10
2018-09-24T08:51:05.729Z,57.30
2018-09-24T08:53:39.966Z,57.50
2018-09-24T08:56:18.833Z,59.70
2018-09-24T08:58:53.592Z,59.60
2018-09-24T09:01:28.683Z,59.20
2018-09-24T09:04:02.998Z,56.00
2018-09-24T09:06:37.244Z,55.80
2018-09-24T09:09:15.890Z,54.40
2018-09-24T09:11:50.213Z,54.30
2018-09-24T09:14:24.488Z,52.50
2018-09-24T09:16:58.728Z,52.10
2018-09-24T09:19:33.049Z,50.70
2018-09-24T09:22:08.234Z,50.10
2018-09-24T09:24:42.563Z,49.30
2018-09-24T09:27:16.868Z,50.70
2018-09-24T09:29:51.216Z,48.90
2018-09-24T09:32:26.179Z,51.60
2018-09-24T09:35:00.501Z,54.30
2018-09-24T09:37:34.904Z,56.00
2018-09-24T09:40:09.174Z,54.30
2018-09-24T09:42:43.309Z,51.80
2018-09-24T09:45:17.524Z,49.30
2018-09-24T09:47:52.708Z,50.40
2018-09-24T09:50:27.069Z,47.20
2018-09-24T09:53:01.291Z,47.60
2018-09-24T09:55:35.436Z,47.70
2018-09-24T09:58:09.653Z,47.00
2018-09-24T10:00:43.825Z,46.70
2018-09-24T10:03:18.141Z,44.00
2018-09-24T10:05:54.753Z,43.70
2018-09-24T10:08:28.933Z,44.10
2018-09-24T10:11:03.129Z,43.60
2018-09-24T10:13:37.486Z,44.10
2018-09-24T10:16:13.268Z,42.90
2018-09-24T10:18:48.230Z,44.40
2018-09-24T10:21:22.454Z,45.30
2018-09-24T10:23:56.713Z,46.80
2018-09-24T10:26:31.960Z,48.20
2018-09-24T10:29:09.346Z,47.10
2018-09-24T10:31:43.665Z,43.00
2018-09-24T10:34:17.914Z,41.20
2018-09-24T10:37:04.026Z,41.60
2018-09-24T10:39:43.891Z,41.20
2018-09-24T10:42:18.213Z,38.50
2018-09-24T10:44:52.501Z,38.80
2018-09-24T10:47:26.816Z,38.60
2018-09-24T10:50:01.001Z,38.20
2018-09-24T10:52:35.215Z,39.60
2018-09-24T10:55:09.338Z,39.60
2018-09-24T10:57:43.647Z,39.50
2018-09-24T11:00:18.005Z,44.70
2018-09-24T11:02:52.270Z,44.70
2018-09-24T11:05:26.506Z,44.70
2018-09-24T11:08:00.809Z,43.80
2018-09-24T11:10:35.168Z,41.90
2018-09-24T11:13:09.386Z,41.90
2018-09-24T11:15:43.775Z,42.90
2018-09-24T11:18:18.853Z,55.80
2018-09-24T11:20:53.165Z,64.40
2018-09-24T11:23:27.556Z,69.80
2018-09-24T11:26:01.871Z,69.30
2018-09-24T11:28:39.316Z,68.90
2018-09-24T11:31:13.623Z,69.60
2018-09-24T11:33:47.985Z,70.60
2018-09-24T11:36:22.446Z,75.10
2018-09-24T11:42:02.203Z,72.00
2018-09-24T11:44:36.603Z,70.80
2018-09-24T11:47:11.992Z,68.20
2018-09-24T11:49:46.405Z,61.10
2018-09-24T11:52:21.043Z,57.80
2018-09-24T11:54:55.550Z,51.40
2018-09-24T11:57:30.108Z,46.80
2018-09-24T12:00:04.380Z,43.30
2018-09-24T12:02:38.981Z,42.60
2018-09-24T12:05:13.825Z,41.10
2018-09-24T12:07:48.130Z,44.00
2018-09-24T12:10:22.528Z,43.50
2018-09-24T12:12:57.536Z,40.20
2018-09-24T12:15:31.803Z,43.80
2018-09-24T12:18:06.036Z,50.30
2018-09-24T12:20:40.393Z,52.50
2018-09-24T12:23:14.888Z,52.40
2018-09-24T12:25:49.193Z,55.60
2018-09-24T12:28:23.770Z,52.90
2018-09-24T12:30:58.033Z,55.10
2018-09-24T12:33:32.437Z,53.00
2018-09-24T12:36:06.726Z,54.80
2018-09-24T12:38:42.041Z,51.60
2018-09-24T12:41:17.076Z,52.10
2018-09-24T12:43:51.430Z,45.30
2018-09-24T12:46:25.694Z,41.10
2018-09-24T12:49:00.927Z,42.60
2018-09-24T12:51:35.281Z,38.20
2018-09-24T12:54:11.872Z,39.30
2018-09-24T12:56:47.099Z,34.80
2018-09-24T12:59:21.719Z,34.80
2018-09-24T13:01:56.639Z,35.00
2018-09-24T13:04:30.944Z,32.40
2018-09-24T13:07:05.213Z,33.40
2018-09-24T13:09:41.456Z,34.50
2018-09-24T13:12:15.911Z,32.90
2018-09-24T13:14:51.832Z,33.20
2018-09-24T13:17:26.308Z,32.60
2018-09-24T13:20:01.409Z,31.20
2018-09-24T13:22:35.781Z,32.80
2018-09-24T13:25:10.061Z,31.90
2018-09-24T13:27:44.310Z,34.20
2018-09-24T13:30:19.109Z,35.20
2018-09-24T13:32:53.415Z,41.60
2018-09-24T13:35:28.720Z,44.90
2018-09-24T13:38:02.958Z,49.80
2018-09-24T13:40:42.058Z,52.50
2018-09-24T13:43:20.992Z,54.40
2018-09-24T13:45:59.041Z,55.60
2018-09-24T13:48:33.687Z,56.00
2018-09-24T13:51:08.434Z,56.00
2018-09-24T13:53:43.221Z,54.70
2018-09-24T13:56:17.919Z,54.30
2018-09-24T13:58:52.186Z,52.40
2018-09-24T14:01:26.646Z,52.40
2018-09-24T14:04:02.072Z,53.10
2018-09-24T14:06:41.921Z,54.20
2018-09-24T14:09:18.143Z,53.20
2018-09-24T14:11:52.471Z,53.20
2018-09-24T14:14:27.178Z,54.60
2018-09-24T14:17:02.533Z,53.70
2018-09-24T14:19:36.821Z,53.90
2018-09-24T14:22:11.490Z,54.40
2018-09-24T14:24:45.770Z,56.00
2018-09-24T14:27:21.161Z,54.90
2018-09-24T14:29:55.443Z,55.50
2018-09-24T14:32:30.154Z,54.80
2018-09-24T14:35:04.836Z,53.30
2018-09-24T14:37:40.234Z,53.40
2018-09-24T14:40:14.771Z,54.00
2018-09-24T14:42:49.445Z,54.40
2018-09-24T14:45:24.131Z,54.30
2018-09-24T14:47:58.791Z,54.30
2018-09-24T14:50:33.504Z,54.90
2018-09-24T14:53:08.224Z,55.90
2018-09-24T14:55:42.932Z,55.70
2018-09-24T14:58:18.153Z,54.70
2018-09-24T15:00:53.073Z,52.80
2018-09-24T15:03:27.837Z,52.90
2018-09-24T15:06:02.609Z,51.10
2018-09-24T15:08:38.364Z,49.60
2018-09-24T15:11:13.679Z,48.20
2018-09-24T15:13:48.101Z,46.80
2018-09-24T15:16:22.674Z,47.80
2018-09-24T15:18:57.284Z,49.50
2018-09-24T15:21:33.522Z,51.10
2018-09-24T15:24:08.166Z,52.30
2018-09-24T15:26:42.592Z,52.40
2018-09-24T15:29:17.981Z,52.30
2018-09-24T15:31:53.089Z,51.90
2018-09-24T15:34:27.802Z,52.50
2018-09-24T15:37:02.726Z,52.10
2018-09-24T15:39:37.792Z,53.20
2018-09-24T15:42:13.502Z,53.20
2018-09-24T15:44:50.719Z,53.40
2018-09-24T15:47:25.579Z,53.10
2018-09-24T15:50:01.094Z,53.20
2018-09-24T15:52:36.358Z,51.20
2018-09-24T15:55:11.983Z,50.50
2018-09-24T15:57:47.104Z,51.50
2018-09-24T16:00:22.159Z,51.50
2018-09-24T16:02:56.912Z,50.40
2018-09-24T16:05:32.817Z,50.90
2018-09-24T16:08:08.633Z,48.30
2018-09-24T16:10:44.325Z,48.60
2018-09-24T16:13:18.716Z,48.30
2018-09-24T16:15:58.737Z,48.70
2018-09-24T16:18:38.598Z,49.10
2018-09-24T16:21:13.458Z,48.90
2018-09-24T16:23:48.207Z,48.70
2018-09-24T16:26:22.777Z,48.90
2018-09-24T16:28:57.550Z,48.20
2018-09-24T16:31:37.627Z,48.70
2018-09-24T16:34:12.236Z,48.00
2018-09-24T16:36:46.864Z,47.20
2018-09-24T16:39:21.357Z,47.70
2018-09-24T16:41:56.803Z,47.60
2018-09-24T16:44:31.536Z,48.10
2018-09-24T16:47:11.829Z,47.80
2018-09-24T16:49:46.398Z,46.90
2018-09-24T16:52:20.964Z,48.80
2018-09-24T16:54:55.626Z,47.40
2018-09-24T16:57:30.180Z,48.50
2018-09-24T17:00:04.835Z,47.80
2018-09-24T17:02:40.257Z,47.30
2018-09-24T17:05:15.072Z,47.40
2018-09-24T17:07:49.584Z,47.50
2018-09-24T17:10:24.169Z,48.00
2018-09-24T17:13:04.379Z,48.00
2018-09-24T17:15:39.187Z,48.20
2018-09-24T17:18:19.967Z,47.90
2018-09-24T17:20:54.559Z,48.20
2018-09-24T17:23:30.226Z,49.00
2018-09-24T17:26:04.876Z,49.50
2018-09-24T17:28:40.679Z,49.70
2018-09-24T17:31:20.965Z,49.80
2018-09-24T17:33:55.689Z,50.20
2018-09-24T17:36:30.198Z,50.60
2018-09-24T17:39:04.728Z,50.70
2018-09-24T17:41:39.714Z,50.50
2018-09-24T17:44:14.443Z,51.00
2018-09-24T17:46:48.882Z,51.50
2018-09-24T17:49:29.059Z,51.50
2018-09-24T17:52:03.639Z,51.70
2018-09-24T17:54:43.852Z,51.40
2018-09-24T17:57:18.509Z,51.90
2018-09-24T17:59:53.029Z,51.90
2018-09-24T18:02:29.163Z,52.10
2018-09-24T18:05:04.008Z,52.10
2018-09-24T18:07:39.046Z,52.60
2018-09-24T18:10:14.441Z,52.70
2018-09-24T18:12:48.936Z,52.90
2018-09-24T18:15:24.328Z,53.20
2018-09-24T18:17:58.911Z,53.20
2018-09-24T18:20:33.725Z,54.00
2018-09-24T18:23:08.271Z,53.70
2018-09-24T18:25:44.317Z,53.70
2018-09-24T18:28:19.058Z,54.20
2018-09-24T18:30:53.488Z,53.70
2018-09-24T18:52:37.389Z,53.30
2018-09-24T18:55:17.461Z,53.40
2018-09-24T18:57:58.160Z,52.90
2018-09-24T19:03:15.753Z,53.00
2018-09-24T19:05:51.496Z,52.60
2018-09-24T19:08:27.548Z,52.20
2018-09-24T19:11:01.891Z,52.50
2018-09-24T19:13:36.759Z,52.20
2018-09-24T19:16:16.667Z,52.50
2018-09-24T19:18:51.274Z,52.50
2018-09-24T19:21:25.644Z,52.30
2018-09-24T19:24:00.129Z,52.40
2018-09-24T19:26:35.776Z,52.20
2018-09-24T19:29:16.144Z,51.70
2018-09-24T19:31:50.801Z,52.80
2018-09-24T19:34:26.029Z,51.80
2018-09-24T19:37:01.068Z,51.70
2018-09-24T19:39:39.736Z,51.40
2018-09-24T19:42:14.506Z,50.90
2018-09-24T19:44:49.821Z,50.90
2018-09-24T19:47:24.375Z,50.60
2018-09-24T19:49:59.089Z,50.70
2018-09-24T19:55:45.896Z,50.80
2018-09-24T20:01:28.150Z,50.20
2018-09-24T20:04:02.711Z,50.10
2018-09-24T20:06:44.043Z,50.20
2018-09-24T20:09:18.619Z,49.90
2018-09-24T20:11:53.444Z,49.80
2018-09-24T20:14:28.376Z,49.40
2018-09-24T20:17:04.713Z,50.00
2018-09-24T20:19:41.379Z,50.40
2018-09-24T20:22:17.610Z,50.00
2018-09-24T20:24:59.422Z,50.20
2018-09-24T20:27:34.230Z,50.10
2018-09-24T20:30:08.984Z,49.70
2018-09-24T20:32:44.804Z,50.10
2018-09-24T20:35:20.107Z,50.40
2018-09-24T20:38:00.344Z,50.40
2018-09-24T20:40:34.966Z,50.40
2018-09-24T20:43:09.897Z,50.20
2018-09-24T20:45:45.641Z,50.90
2018-09-24T20:48:20.389Z,51.30
2018-09-24T20:50:55.352Z,51.30
2018-09-24T20:53:33.001Z,51.30
2018-09-24T20:56:07.711Z,51.50
2018-09-24T20:58:42.391Z,50.70
2018-09-24T21:01:17.046Z,51.40
2018-09-24T21:03:54.169Z,50.10
2018-09-24T21:06:29.198Z,50.90
2018-09-24T21:09:03.928Z,51.60
2018-09-24T21:11:38.774Z,51.90
2018-09-24T21:14:13.593Z,52.10
2018-09-24T21:16:53.836Z,52.50
2018-09-24T21:19:28.498Z,51.90
2018-09-24T21:22:03.147Z,51.00
2018-09-24T21:24:38.027Z,51.00
2018-09-24T21:27:12.863Z,51.50
2018-09-24T21:29:47.666Z,51.10
2018-09-24T21:32:22.496Z,51.50
2018-09-24T21:34:57.473Z,52.10
2018-09-24T21:37:32.251Z,51.80
2018-09-24T21:40:06.991Z,51.40
2018-09-24T21:42:41.779Z,51.60
2018-09-24T21:45:22.066Z,50.30
2018-09-24T21:47:56.772Z,50.70
2018-09-24T21:50:33.063Z,50.60
2018-09-24T21:53:09.410Z,50.30
2018-09-24T21:55:45.831Z,50.60
2018-09-24T21:58:22.101Z,50.90
2018-09-24T22:00:56.918Z,50.00
2018-09-24T22:03:32.207Z,50.30
2018-09-24T22:06:06.984Z,49.10
2018-09-24T22:08:41.862Z,49.60
2018-09-24T22:11:18.098Z,49.90
2018-09-24T22:13:52.982Z,48.90
2018-09-24T22:16:27.788Z,47.80
2018-09-24T22:19:03.158Z,48.10
2018-09-24T22:21:51.476Z,48.90
2018-09-24T22:24:25.736Z,48.90
2018-09-24T22:27:00.077Z,49.30
2018-09-24T22:29:35.703Z,49.20
2018-09-24T22:32:10.429Z,49.40
2018-09-24T22:34:44.657Z,48.60
2018-09-24T22:37:18.858Z,48.30
2018-09-24T22:39:53.031Z,49.10
2018-09-24T22:42:27.376Z,47.60
2018-09-24T22:45:02.438Z,48.10
2018-09-24T22:47:36.818Z,47.50
2018-09-24T22:50:11.340Z,47.60
2018-09-24T22:52:57.073Z,46.70
2018-09-24T22:55:31.968Z,47.10
2018-09-24T22:58:06.409Z,46.60
2018-09-24T23:00:40.623Z,47.80
2018-09-24T23:03:15.267Z,46.80
2018-09-24T23:05:49.480Z,46.40
2018-09-24T23:08:23.778Z,47.10
2018-09-24T23:10:58.835Z,46.60
2018-09-24T23:13:33.133Z,47.10
2018-09-24T23:16:07.476Z,47.30
2018-09-24T23:18:42.321Z,46.30
2018-09-24T23:21:16.461Z,47.00
2018-09-24T23:23:51.769Z,47.30
2018-09-24T23:26:26.861Z,48.00
2018-09-24T23:29:01.787Z,47.10
2018-09-24T23:31:35.889Z,46.70
2018-09-24T23:34:10.264Z,47.10
2018-09-24T23:36:44.489Z,46.70
2018-09-24T23:39:18.783Z,46.70
2018-09-24T23:41:53.033Z,47.10
2018-09-24T23:44:27.416Z,47.80
2018-09-24T23:47:01.585Z,47.60
2018-09-24T23:49:36.041Z,47.70
2018-09-24T23:52:10.277Z,48.20
2018-09-24T23:54:45.154Z,48.60
2018-09-24T23:57:19.583Z,48.80
2018-09-24T23:59:53.989Z,49.30
